logo
Search for airport 
image banner adimage banner adimage banner ad
image banner ad

FAUC - Ulco

Located in Ulco, South Africa

ICAO - FAUC, IATA -

Data provided by Airmate  

General information

Coordinates: S28°21'14" E24°13'44"
Elevation is 3510 feet MSL.
 
View others Airports in Northern Cape

Operational data

Special qualification required
Current time UTC:
Current local time:
Weather at : FAKM - Kimberley ( 72 km )
METAR: FAKM 230500Z 00000KT CAVOK 13/10 Q1021
TAF: TAF FAKM 230300Z 2304/2315 VRB03KT CAVOK TX30/2312Z TN11/2304Z
View NOTAMs / SUP AIP / TFR affecting this airport [VIEW]
Communications frequencies: [VIEW]

Runways:

RWY identifierQFULength (ft)Width (ft)SurfaceLDA (ft)
0142°410136ASPH
19222°410136ASPH

Airport contact information

Address: Ulco South Africa

Satellite view of FAUC